Time;durP1;ratioP1;P1;durP2;ratioP2;P2;SDS_P1;SDS_P2;PMS_P1;PMS_P2;Temp;Humidity;BMP_temperature;BMP_pressure;BME280_temperature;BME280_humidity;BME280_pressure;Samples;Min_cycle;Max_cycle;Signal;HPM_P1;HPM_P2
2024/02/28 00:00:51;;;;;;;;;;;5.40;99.90;;;;;;2059700;28;19914;-79
2024/02/28 00:01:52;;;;;;;;;;;5.40;99.90;;;;;;2060708;28;19967;-78
2024/02/28 00:02:53;;;;;;;;;;;5.40;99.90;;;;;;2059528;28;20679;-78
2024/02/28 00:03:53;;;;;;;;;;;5.40;99.90;;;;;;2060215;28;19922;-78
2024/02/28 00:04:54;;;;;;;;;;;5.40;99.90;;;;;;2058748;28;20010;-76
2024/02/28 00:05:54;;;;;;;;;;;5.50;99.90;;;;;;2059974;28;20380;-78
2024/02/28 00:06:54;;;;;;;;;;;5.50;99.90;;;;;;2059586;28;19940;-76
2024/02/28 00:07:55;;;;;;;;;;;5.50;99.90;;;;;;2059521;28;19913;-76
2024/02/28 00:08:55;;;;;;;;;;;5.50;99.90;;;;;;2059593;28;20419;-78
2024/02/28 00:09:57;;;;;;;;;;;5.50;99.90;;;;;;2059974;28;19906;-77
2024/02/28 00:10:58;;;;;;;;;;;5.40;99.90;;;;;;2051294;28;19914;-77
2024/02/28 00:11:58;;;;;;;;;;;5.40;99.90;;;;;;2051633;28;19921;-77
2024/02/28 00:12:59;;;;;;;;;;;5.50;99.90;;;;;;2060040;28;19918;-78
2024/02/28 00:14:02;;;;;;;;;;;5.50;99.90;;;;;;2059306;28;19922;-77
2024/02/28 00:15:05;;;;;;;;;;;5.50;99.90;;;;;;2056212;28;19910;-76
2024/02/28 00:16:05;;;;;;;;;;;5.50;99.90;;;;;;2056646;28;19909;-78
2024/02/28 00:17:06;;;;;;;;;;;5.60;99.90;;;;;;2058793;28;19936;-77
2024/02/28 00:18:06;;;;;;;;;;;5.50;99.90;;;;;;2056948;28;19918;-77
2024/02/28 00:19:07;;;;;;;;;;;5.50;99.90;;;;;;2059891;28;19997;-77
2024/02/28 00:20:08;;;;;;;;;;;5.50;99.90;;;;;;2059476;28;19921;-79
2024/02/28 00:21:09;;;;;;;;;;;5.50;99.90;;;;;;2059457;28;19913;-78
2024/02/28 00:22:09;;;;;;;;;;;5.50;99.90;;;;;;2054259;28;20174;-80
2024/02/28 00:23:10;;;;;;;;;;;5.40;99.90;;;;;;2057702;28;20363;-77
2024/02/28 00:24:11;;;;;;;;;;;5.40;99.90;;;;;;2056546;28;19945;-78
2024/02/28 00:25:13;;;;;;;;;;;5.40;99.90;;;;;;2058421;28;19948;-78
2024/02/28 00:26:14;;;;;;;;;;;5.40;99.90;;;;;;2058588;28;19920;-78
2024/02/28 00:27:14;;;;;;;;;;;5.40;99.90;;;;;;2059358;28;20435;-78
2024/02/28 00:28:15;;;;;;;;;;;5.50;99.90;;;;;;2059597;28;19909;-78
2024/02/28 00:29:15;;;;;;;;;;;5.50;99.90;;;;;;2056518;28;19913;-78
2024/02/28 00:30:16;;;;;;;;;;;5.40;99.90;;;;;;2059750;28;19922;-78
2024/02/28 00:31:17;;;;;;;;;;;5.50;99.90;;;;;;2058625;28;19910;-78
2024/02/28 00:32:18;;;;;;;;;;;5.40;99.90;;;;;;2060236;28;20015;-78
2024/02/28 00:33:18;;;;;;;;;;;5.40;99.90;;;;;;2058196;28;19960;-78
2024/02/28 00:34:19;;;;;;;;;;;5.40;99.90;;;;;;2051594;28;19984;-77
2024/02/28 00:35:19;;;;;;;;;;;5.50;99.90;;;;;;2057989;28;20292;-77
2024/02/28 00:36:20;;;;;;;;;;;5.50;99.90;;;;;;2059551;28;20347;-77
2024/02/28 00:37:21;;;;;;;;;;;5.50;99.90;;;;;;2059457;28;19914;-79
2024/02/28 00:38:22;;;;;;;;;;;5.50;99.90;;;;;;2057766;28;19929;-77
2024/02/28 00:39:22;;;;;;;;;;;5.50;99.90;;;;;;2058445;28;20014;-77
2024/02/28 00:40:24;;;;;;;;;;;5.50;99.90;;;;;;2060034;28;20204;-77
2024/02/28 00:41:25;;;;;;;;;;;5.50;99.90;;;;;;2059497;28;19969;-78
2024/02/28 00:42:27;;;;;;;;;;;5.50;99.90;;;;;;2059327;28;20359;-79
2024/02/28 00:43:27;;;;;;;;;;;5.50;99.90;;;;;;2060100;28;19914;-78
2024/02/28 00:44:27;;;;;;;;;;;5.50;99.90;;;;;;2056653;28;19914;-78
2024/02/28 00:45:28;;;;;;;;;;;5.50;99.90;;;;;;2059568;28;20031;-78
2024/02/28 00:46:28;;;;;;;;;;;5.50;99.90;;;;;;2060076;28;20349;-78
2024/02/28 00:47:29;;;;;;;;;;;5.50;99.90;;;;;;2059404;28;19956;-78
2024/02/28 00:48:29;;;;;;;;;;;5.50;99.90;;;;;;2059226;28;19921;-78
2024/02/28 00:49:30;;;;;;;;;;;5.50;99.90;;;;;;2057173;28;19914;-78
2024/02/28 00:50:30;;;;;;;;;;;5.50;99.90;;;;;;2058421;28;19921;-79
2024/02/28 00:51:31;;;;;;;;;;;5.50;99.90;;;;;;2059577;28;19922;-77
2024/02/28 00:52:32;;;;;;;;;;;5.50;99.90;;;;;;2056314;28;19910;-79
2024/02/28 00:53:32;;;;;;;;;;;5.50;99.90;;;;;;2060066;28;19910;-78
2024/02/28 00:54:33;;;;;;;;;;;5.50;99.90;;;;;;2059735;28;19980;-78
2024/02/28 00:55:33;;;;;;;;;;;5.50;99.90;;;;;;2060183;28;19921;-78
2024/02/28 00:56:34;;;;;;;;;;;5.50;99.90;;;;;;2060021;28;20376;-78
2024/02/28 00:57:35;;;;;;;;;;;5.50;99.90;;;;;;2059684;28;19932;-78
2024/02/28 00:58:35;;;;;;;;;;;5.50;99.90;;;;;;2060370;28;19913;-78
2024/02/28 00:59:36;;;;;;;;;;;5.50;99.90;;;;;;2055599;28;20373;-79
2024/02/28 01:00:36;;;;;;;;;;;5.50;99.90;;;;;;2059449;28;19936;-78
2024/02/28 01:01:37;;;;;;;;;;;5.40;99.90;;;;;;2056287;28;19949;-74
2024/02/28 01:02:39;;;;;;;;;;;5.50;99.90;;;;;;2059908;28;19909;-76
2024/02/28 01:03:39;;;;;;;;;;;5.50;99.90;;;;;;2060161;28;19917;-76
2024/02/28 01:04:41;;;;;;;;;;;5.50;99.90;;;;;;2061809;28;20291;-78
2024/02/28 01:05:41;;;;;;;;;;;5.50;99.90;;;;;;2059575;28;19960;-78
2024/02/28 01:06:42;;;;;;;;;;;5.50;99.90;;;;;;2060062;28;19964;-77
2024/02/28 01:07:43;;;;;;;;;;;5.50;99.90;;;;;;2056209;28;19910;-79
2024/02/28 01:08:43;;;;;;;;;;;5.50;99.90;;;;;;2048353;28;20024;-76
2024/02/28 01:09:44;;;;;;;;;;;5.50;99.90;;;;;;2067369;28;20011;-75
2024/02/28 01:10:45;;;;;;;;;;;5.40;99.90;;;;;;2059890;28;19960;-77
2024/02/28 01:11:45;;;;;;;;;;;5.50;99.90;;;;;;2059679;28;19917;-76
2024/02/28 01:12:46;;;;;;;;;;;5.40;99.90;;;;;;2055927;28;20012;-76
2024/02/28 01:13:46;;;;;;;;;;;5.40;99.90;;;;;;2056065;28;20443;-77
2024/02/28 01:14:47;;;;;;;;;;;5.50;99.90;;;;;;2059869;28;19917;-78
2024/02/28 01:15:47;;;;;;;;;;;5.50;99.90;;;;;;2055514;28;19924;-76
2024/02/28 01:16:48;;;;;;;;;;;5.50;99.90;;;;;;2055777;28;19972;-77
2024/02/28 01:17:49;;;;;;;;;;;5.50;99.90;;;;;;2059924;28;20012;-77
2024/02/28 01:18:49;;;;;;;;;;;5.50;99.90;;;;;;2059023;28;20293;-77
2024/02/28 01:19:50;;;;;;;;;;;5.50;99.90;;;;;;2058373;28;19914;-79
2024/02/28 01:20:52;;;;;;;;;;;5.40;99.90;;;;;;2056472;28;19924;-77
2024/02/28 01:21:52;;;;;;;;;;;5.40;99.90;;;;;;2050997;28;19914;-78
2024/02/28 01:22:53;;;;;;;;;;;5.40;99.90;;;;;;2055638;28;19917;-78
2024/02/28 01:23:53;;;;;;;;;;;5.40;99.90;;;;;;2059864;28;19934;-79
2024/02/28 01:24:54;;;;;;;;;;;5.50;99.90;;;;;;2060166;28;19913;-78
2024/02/28 01:25:54;;;;;;;;;;;5.50;99.90;;;;;;2059356;28;19961;-78
2024/02/28 01:26:55;;;;;;;;;;;5.50;99.90;;;;;;2059997;28;19910;-78
2024/02/28 01:27:56;;;;;;;;;;;5.40;99.90;;;;;;2059242;28;20484;-78
2024/02/28 01:28:56;;;;;;;;;;;5.40;99.90;;;;;;2057583;28;19913;-77
2024/02/28 01:29:57;;;;;;;;;;;5.40;99.90;;;;;;2056819;28;19916;-78
2024/02/28 01:30:58;;;;;;;;;;;5.50;99.90;;;;;;2057433;28;19992;-76
2024/02/28 01:31:58;;;;;;;;;;;5.50;99.90;;;;;;2052779;28;19909;-78
2024/02/28 01:32:59;;;;;;;;;;;5.50;99.90;;;;;;2052415;28;19962;-79
2024/02/28 01:34:00;;;;;;;;;;;5.50;99.90;;;;;;2060120;28;19917;-78
2024/02/28 01:35:02;;;;;;;;;;;5.50;99.90;;;;;;2058998;28;19964;-79
2024/02/28 01:36:04;;;;;;;;;;;5.50;99.90;;;;;;2059103;28;19947;-77
2024/02/28 01:37:05;;;;;;;;;;;5.50;99.90;;;;;;2060225;28;19909;-78
2024/02/28 01:38:05;;;;;;;;;;;5.50;99.90;;;;;;2056715;28;19914;-78
2024/02/28 01:39:06;;;;;;;;;;;5.50;99.90;;;;;;2041568;29;19910;-77
2024/02/28 01:40:06;;;;;;;;;;;5.50;99.90;;;;;;2051096;28;20315;-79
2024/02/28 01:41:07;;;;;;;;;;;5.60;99.90;;;;;;2059751;28;20012;-80
2024/02/28 01:42:09;;;;;;;;;;;5.60;99.90;;;;;;2059533;28;20435;-78
2024/02/28 01:43:11;;;;;;;;;;;5.60;99.90;;;;;;2059753;28;19922;-77
2024/02/28 01:44:11;;;;;;;;;;;5.60;99.90;;;;;;2060066;28;19942;-77
2024/02/28 01:45:13;;;;;;;;;;;5.60;99.90;;;;;;2059740;28;20376;-77
2024/02/28 01:46:20;;;;;;;;;;;5.60;99.90;;;;;;2054921;28;19972;-78
2024/02/28 01:47:21;;;;;;;;;;;5.60;99.90;;;;;;2059698;28;19914;-78
2024/02/28 01:48:21;;;;;;;;;;;5.60;99.90;;;;;;2055921;28;19918;-79
2024/02/28 01:49:22;;;;;;;;;;;5.60;99.90;;;;;;2055969;28;19910;-78
2024/02/28 01:50:23;;;;;;;;;;;5.60;99.90;;;;;;2055728;28;20376;-78
2024/02/28 01:51:25;;;;;;;;;;;5.60;99.90;;;;;;2055894;28;19922;-77
2024/02/28 01:52:25;;;;;;;;;;;5.50;99.90;;;;;;2056473;28;19914;-79
2024/02/28 01:53:26;;;;;;;;;;;5.60;99.90;;;;;;2059960;28;19913;-77
2024/02/28 01:54:27;;;;;;;;;;;5.60;99.90;;;;;;2059916;28;19927;-78
2024/02/28 01:55:28;;;;;;;;;;;5.50;99.90;;;;;;2059968;28;20351;-78
2024/02/28 01:56:29;;;;;;;;;;;5.50;99.90;;;;;;2059805;28;19910;-78
2024/02/28 01:57:29;;;;;;;;;;;5.50;99.90;;;;;;2059307;28;19917;-77
2024/02/28 01:58:30;;;;;;;;;;;5.60;99.90;;;;;;2058835;28;19914;-78
2024/02/28 01:59:31;;;;;;;;;;;5.60;99.90;;;;;;2056260;28;20004;-78
2024/02/28 02:00:35;;;;;;;;;;;5.60;99.90;;;;;;2059076;28;20316;-77
2024/02/28 02:01:36;;;;;;;;;;;5.60;99.90;;;;;;2058520;28;20229;-78
2024/02/28 02:02:37;;;;;;;;;;;5.60;99.90;;;;;;2054756;28;19995;-77
2024/02/28 02:03:37;;;;;;;;;;;5.60;99.90;;;;;;2051349;28;19957;-79
2024/02/28 02:04:38;;;;;;;;;;;5.50;99.90;;;;;;2057043;28;20353;-79
2024/02/28 02:05:38;;;;;;;;;;;5.50;99.90;;;;;;2059480;28;19916;-78
2024/02/28 02:06:42;;;;;;;;;;;5.50;99.90;;;;;;2059650;28;20363;-78
2024/02/28 02:07:42;;;;;;;;;;;5.50;99.90;;;;;;2058776;28;19910;-78
2024/02/28 02:08:43;;;;;;;;;;;5.50;99.90;;;;;;2059187;28;19910;-78
2024/02/28 02:09:43;;;;;;;;;;;5.50;99.90;;;;;;2059570;28;19920;-78
2024/02/28 02:10:44;;;;;;;;;;;5.60;99.90;;;;;;2055502;28;19945;-78
2024/02/28 02:11:44;;;;;;;;;;;5.60;99.90;;;;;;2057124;28;20315;-78
2024/02/28 02:12:45;;;;;;;;;;;5.60;99.90;;;;;;2057967;28;19920;-78
2024/02/28 02:13:49;;;;;;;;;;;5.60;99.90;;;;;;2055715;28;19920;-78
2024/02/28 02:14:50;;;;;;;;;;;5.60;99.90;;;;;;2059527;28;19921;-79
2024/02/28 02:15:50;;;;;;;;;;;5.70;99.90;;;;;;2059584;28;19914;-77
2024/02/28 02:16:51;;;;;;;;;;;5.60;99.90;;;;;;2059687;28;20442;-77
2024/02/28 02:17:51;;;;;;;;;;;5.60;99.90;;;;;;2059766;28;19913;-77
2024/02/28 02:18:52;;;;;;;;;;;5.60;99.90;;;;;;2059902;28;20368;-77
2024/02/28 02:19:52;;;;;;;;;;;5.60;99.90;;;;;;2059469;28;20238;-78
2024/02/28 02:20:57;;;;;;;;;;;5.60;99.90;;;;;;2058991;28;19918;-77
2024/02/28 02:21:59;;;;;;;;;;;5.60;99.90;;;;;;2058954;28;20486;-77
2024/02/28 02:22:59;;;;;;;;;;;5.50;99.90;;;;;;2059594;28;20462;-77
2024/02/28 02:24:00;;;;;;;;;;;5.50;99.90;;;;;;2059818;28;19960;-77
2024/02/28 02:25:02;;;;;;;;;;;5.50;99.90;;;;;;2059369;28;19914;-77
2024/02/28 02:26:03;;;;;;;;;;;5.50;99.90;;;;;;2056037;28;19913;-79
2024/02/28 02:27:06;;;;;;;;;;;5.50;99.90;;;;;;2059638;28;19917;-76
2024/02/28 02:28:06;;;;;;;;;;;5.50;99.90;;;;;;2055571;28;19910;-77
2024/02/28 02:29:09;;;;;;;;;;;5.50;99.90;;;;;;2054300;28;19910;-77
2024/02/28 02:30:10;;;;;;;;;;;5.50;99.90;;;;;;2059571;28;20453;-76
2024/02/28 02:31:11;;;;;;;;;;;5.50;99.90;;;;;;2054769;28;19917;-79
2024/02/28 02:32:11;;;;;;;;;;;5.50;99.90;;;;;;2059531;28;19921;-78
2024/02/28 02:33:12;;;;;;;;;;;5.50;99.90;;;;;;2059554;28;19953;-79
2024/02/28 02:34:12;;;;;;;;;;;5.50;99.90;;;;;;2059546;28;19952;-79
2024/02/28 02:35:13;;;;;;;;;;;5.40;99.90;;;;;;2059210;28;19960;-78
2024/02/28 02:36:13;;;;;;;;;;;5.40;99.90;;;;;;2058737;28;19941;-79
2024/02/28 02:37:14;;;;;;;;;;;5.50;99.90;;;;;;2054579;28;20685;-79
2024/02/28 02:38:14;;;;;;;;;;;5.50;99.90;;;;;;2055759;28;19921;-79
2024/02/28 02:39:15;;;;;;;;;;;5.50;99.90;;;;;;2059310;28;20005;-77
2024/02/28 02:40:15;;;;;;;;;;;5.50;99.90;;;;;;2059848;28;20292;-77
2024/02/28 02:41:16;;;;;;;;;;;5.60;99.90;;;;;;2061259;28;19910;-77
2024/02/28 02:42:17;;;;;;;;;;;5.60;99.90;;;;;;2057090;28;19914;-77
2024/02/28 02:43:18;;;;;;;;;;;5.60;99.90;;;;;;2061068;28;19917;-77
2024/02/28 02:44:18;;;;;;;;;;;5.60;99.90;;;;;;2057032;28;20309;-78
2024/02/28 02:45:19;;;;;;;;;;;5.60;99.90;;;;;;2061025;28;20004;-77
2024/02/28 02:46:19;;;;;;;;;;;5.60;99.90;;;;;;2060912;28;20295;-77
2024/02/28 02:47:20;;;;;;;;;;;5.60;99.90;;;;;;2061218;28;20349;-76
2024/02/28 02:48:20;;;;;;;;;;;5.50;99.90;;;;;;2057283;28;19917;-77
2024/02/28 02:49:21;;;;;;;;;;;5.50;99.90;;;;;;2058816;28;19917;-77
2024/02/28 02:50:21;;;;;;;;;;;5.50;99.90;;;;;;2054615;28;20573;-77
2024/02/28 02:51:22;;;;;;;;;;;5.50;99.90;;;;;;2060847;28;19918;-76
2024/02/28 02:52:22;;;;;;;;;;;5.50;99.90;;;;;;2061406;28;19918;-78
2024/02/28 02:53:23;;;;;;;;;;;5.50;99.90;;;;;;2060088;28;19913;-78
2024/02/28 02:54:23;;;;;;;;;;;5.40;99.90;;;;;;2060085;28;19932;-78
2024/02/28 02:55:24;;;;;;;;;;;5.50;99.90;;;;;;2058267;28;19914;-78
2024/02/28 02:56:24;;;;;;;;;;;5.40;99.90;;;;;;2059112;28;19924;-79
2024/02/28 02:57:25;;;;;;;;;;;5.40;99.90;;;;;;2060182;28;19910;-77
2024/02/28 02:58:25;;;;;;;;;;;5.40;99.90;;;;;;2060770;28;20073;-78
2024/02/28 02:59:26;;;;;;;;;;;5.40;99.90;;;;;;2057199;28;19910;-77
2024/02/28 03:00:26;;;;;;;;;;;5.40;99.90;;;;;;2060872;28;19913;-77
2024/02/28 03:01:27;;;;;;;;;;;5.40;99.90;;;;;;2060418;28;19949;-78
2024/02/28 03:02:27;;;;;;;;;;;5.40;99.90;;;;;;2060400;28;20064;-77
2024/02/28 03:03:28;;;;;;;;;;;5.40;99.90;;;;;;2060959;28;19914;-77
2024/02/28 03:04:28;;;;;;;;;;;5.40;99.90;;;;;;2057598;28;20265;-77
2024/02/28 03:05:29;;;;;;;;;;;5.40;99.90;;;;;;2060177;28;19916;-79
2024/02/28 03:06:29;;;;;;;;;;;5.40;99.90;;;;;;2060861;28;19991;-78
2024/02/28 03:07:29;;;;;;;;;;;5.50;99.90;;;;;;2061216;28;20004;-77
2024/02/28 03:08:30;;;;;;;;;;;5.50;99.90;;;;;;2060654;28;19987;-77
2024/02/28 03:09:31;;;;;;;;;;;5.50;99.90;;;;;;2060915;28;19964;-77
2024/02/28 03:10:31;;;;;;;;;;;5.50;99.90;;;;;;2061193;28;19933;-78
2024/02/28 03:11:34;;;;;;;;;;;5.50;99.90;;;;;;2059786;28;19948;-76
2024/02/28 03:12:35;;;;;;;;;;;5.50;99.90;;;;;;2058750;28;20038;-78
2024/02/28 03:13:35;;;;;;;;;;;5.50;99.90;;;;;;2060861;28;20466;-78
2024/02/28 03:14:36;;;;;;;;;;;5.50;99.90;;;;;;2057053;28;19943;-77
2024/02/28 03:15:36;;;;;;;;;;;5.40;99.90;;;;;;2062644;28;20331;-77
2024/02/28 03:16:40;;;;;;;;;;;5.50;99.90;;;;;;2059833;28;19964;-78
2024/02/28 03:17:42;;;;;;;;;;;5.50;99.90;;;;;;2057126;28;19936;-77
2024/02/28 03:18:42;;;;;;;;;;;5.50;99.90;;;;;;2061107;28;19941;-78
2024/02/28 03:19:42;;;;;;;;;;;5.50;99.90;;;;;;2060268;28;19917;-77
2024/02/28 03:20:43;;;;;;;;;;;5.50;99.90;;;;;;2052852;28;19914;-78
2024/02/28 03:21:43;;;;;;;;;;;5.50;99.90;;;;;;2057614;28;20372;-77
2024/02/28 03:22:44;;;;;;;;;;;5.50;99.90;;;;;;2060818;28;19910;-78
2024/02/28 03:23:44;;;;;;;;;;;5.50;99.90;;;;;;2060650;28;20276;-78
2024/02/28 03:24:45;;;;;;;;;;;5.50;99.90;;;;;;2059910;28;19917;-78
2024/02/28 03:25:45;;;;;;;;;;;5.60;99.90;;;;;;2057681;28;19976;-78
2024/02/28 03:26:46;;;;;;;;;;;5.60;99.90;;;;;;2056982;28;19906;-78
2024/02/28 03:27:47;;;;;;;;;;;5.50;99.90;;;;;;2060668;28;20384;-76
2024/02/28 03:28:47;;;;;;;;;;;5.50;99.90;;;;;;2059522;28;19914;-77
2024/02/28 03:29:47;;;;;;;;;;;5.40;99.90;;;;;;2054230;28;19920;-78
2024/02/28 03:30:48;;;;;;;;;;;5.40;99.90;;;;;;2059100;28;19913;-77
2024/02/28 03:31:48;;;;;;;;;;;5.40;99.90;;;;;;2055716;28;19996;-77
2024/02/28 03:32:49;;;;;;;;;;;5.40;99.90;;;;;;2055965;28;20376;-78
2024/02/28 03:33:50;;;;;;;;;;;5.30;99.90;;;;;;2058664;28;19917;-77
2024/02/28 03:34:51;;;;;;;;;;;5.30;99.90;;;;;;2056891;28;20013;-77
2024/02/28 03:35:51;;;;;;;;;;;5.30;99.90;;;;;;2060539;28;20360;-76
2024/02/28 03:36:52;;;;;;;;;;;5.30;99.90;;;;;;2060944;28;19910;-77
2024/02/28 03:37:52;;;;;;;;;;;5.30;99.90;;;;;;2060427;28;19920;-77
2024/02/28 03:38:52;;;;;;;;;;;5.30;99.90;;;;;;2060534;28;20394;-77
2024/02/28 03:39:53;;;;;;;;;;;5.30;99.90;;;;;;2060804;28;20073;-77
2024/02/28 03:40:53;;;;;;;;;;;5.40;99.90;;;;;;2060616;28;20368;-78
2024/02/28 03:41:54;;;;;;;;;;;5.40;99.90;;;;;;2058879;28;19912;-77
2024/02/28 03:42:54;;;;;;;;;;;5.40;99.90;;;;;;2057328;28;19943;-78
2024/02/28 03:43:55;;;;;;;;;;;5.40;99.90;;;;;;2060073;28;20064;-78
2024/02/28 03:44:56;;;;;;;;;;;5.40;99.90;;;;;;2060741;28;19921;-80
2024/02/28 03:45:56;;;;;;;;;;;5.40;99.90;;;;;;2060565;28;19910;-78
2024/02/28 03:46:57;;;;;;;;;;;5.30;99.90;;;;;;2060673;28;20394;-77
2024/02/28 03:47:57;;;;;;;;;;;5.40;99.90;;;;;;2060761;28;19941;-77
2024/02/28 03:48:58;;;;;;;;;;;5.30;99.90;;;;;;2060544;28;19945;-77
2024/02/28 03:49:59;;;;;;;;;;;5.30;99.90;;;;;;2060923;28;19913;-77
2024/02/28 03:50:59;;;;;;;;;;;5.20;99.90;;;;;;2060493;28;19910;-77
2024/02/28 03:52:01;;;;;;;;;;;5.20;99.90;;;;;;2055821;28;20040;-78
2024/02/28 03:53:02;;;;;;;;;;;5.20;99.90;;;;;;2060369;28;19913;-79
2024/02/28 03:54:02;;;;;;;;;;;5.20;99.90;;;;;;2056887;28;19914;-78
2024/02/28 03:55:03;;;;;;;;;;;5.20;99.90;;;;;;2060351;28;19980;-78
2024/02/28 03:56:04;;;;;;;;;;;5.20;99.90;;;;;;2059904;28;19909;-77
2024/02/28 03:57:04;;;;;;;;;;;5.20;99.90;;;;;;2060140;28;20153;-78
2024/02/28 03:58:07;;;;;;;;;;;5.20;99.90;;;;;;2058208;28;20442;-78
2024/02/28 03:59:07;;;;;;;;;;;5.20;99.90;;;;;;2059042;28;21241;-78
2024/02/28 04:00:08;;;;;;;;;;;5.20;99.90;;;;;;2056730;28;19918;-78
2024/02/28 04:01:15;;;;;;;;;;;5.20;99.90;;;;;;2056464;28;20009;-67
2024/02/28 04:02:15;;;;;;;;;;;5.20;99.90;;;;;;2060120;28;20282;-70
2024/02/28 04:03:16;;;;;;;;;;;5.20;99.90;;;;;;2060371;28;19921;-75
2024/02/28 04:04:17;;;;;;;;;;;5.20;99.90;;;;;;2059915;28;20456;-79
2024/02/28 04:05:17;;;;;;;;;;;5.20;99.90;;;;;;2059633;28;19914;-73
2024/02/28 04:06:18;;;;;;;;;;;5.20;99.90;;;;;;2056494;28;19914;-72
2024/02/28 04:07:19;;;;;;;;;;;5.20;99.90;;;;;;2052616;28;19960;-72
2024/02/28 04:08:19;;;;;;;;;;;5.10;99.90;;;;;;2055442;28;20406;-72
2024/02/28 04:09:20;;;;;;;;;;;5.20;99.90;;;;;;2056616;28;20004;-71
2024/02/28 04:10:20;;;;;;;;;;;5.10;99.90;;;;;;2060617;28;19953;-71
2024/02/28 04:11:21;;;;;;;;;;;5.10;99.90;;;;;;2062110;28;20372;-71
2024/02/28 04:12:21;;;;;;;;;;;5.10;99.90;;;;;;2056288;28;19916;-72
2024/02/28 04:13:22;;;;;;;;;;;5.10;99.90;;;;;;2060171;28;19983;-71
2024/02/28 04:14:23;;;;;;;;;;;5.10;99.90;;;;;;2053702;28;19914;-74
2024/02/28 04:15:25;;;;;;;;;;;5.10;99.90;;;;;;2055720;28;20008;-70
2024/02/28 04:16:26;;;;;;;;;;;5.10;99.90;;;;;;2060447;28;19913;-71
2024/02/28 04:17:26;;;;;;;;;;;5.00;99.90;;;;;;2060192;28;19913;-72
2024/02/28 04:18:27;;;;;;;;;;;5.00;99.90;;;;;;2057370;28;20295;-73
2024/02/28 04:19:27;;;;;;;;;;;5.10;99.90;;;;;;2060347;28;19917;-73
2024/02/28 04:20:28;;;;;;;;;;;5.00;99.90;;;;;;2060357;28;20400;-73
2024/02/28 04:21:28;;;;;;;;;;;5.10;99.90;;;;;;2059431;28;19968;-73
2024/02/28 04:22:29;;;;;;;;;;;5.00;99.90;;;;;;2057217;28;19980;-73
2024/02/28 04:23:29;;;;;;;;;;;5.00;99.90;;;;;;2060903;28;19909;-74
2024/02/28 04:24:30;;;;;;;;;;;5.00;99.90;;;;;;2059517;28;19917;-73
2024/02/28 04:25:30;;;;;;;;;;;5.00;99.90;;;;;;2057254;28;19919;-73
2024/02/28 04:26:31;;;;;;;;;;;5.00;99.90;;;;;;2060259;28;19921;-73
2024/02/28 04:27:31;;;;;;;;;;;5.00;99.90;;;;;;2060254;28;19910;-73
2024/02/28 04:28:32;;;;;;;;;;;5.00;99.90;;;;;;2058969;28;20450;-73
2024/02/28 04:29:32;;;;;;;;;;;5.00;99.90;;;;;;2059579;28;19913;-72
2024/02/28 04:30:33;;;;;;;;;;;4.90;99.90;;;;;;2059984;28;20376;-72
2024/02/28 04:31:33;;;;;;;;;;;4.90;99.90;;;;;;2051198;28;19950;-71
2024/02/28 04:32:35;;;;;;;;;;;4.90;99.90;;;;;;2053099;28;19942;-72
2024/02/28 04:33:36;;;;;;;;;;;4.90;99.90;;;;;;2059872;28;20514;-73
2024/02/28 04:34:36;;;;;;;;;;;5.00;99.90;;;;;;2056319;28;19976;-73
2024/02/28 04:35:37;;;;;;;;;;;4.90;99.90;;;;;;2060179;28;20016;-73
2024/02/28 04:36:37;;;;;;;;;;;5.00;99.90;;;;;;2055033;28;20007;-73
2024/02/28 04:37:38;;;;;;;;;;;5.00;99.90;;;;;;2059727;28;19952;-72
2024/02/28 04:38:38;;;;;;;;;;;4.90;99.90;;;;;;2058613;28;19913;-72
2024/02/28 04:39:39;;;;;;;;;;;4.90;99.90;;;;;;2056658;28;20419;-73
2024/02/28 04:40:39;;;;;;;;;;;4.90;99.90;;;;;;2058413;28;20019;-80
2024/02/28 04:41:39;;;;;;;;;;;4.80;99.90;;;;;;2057556;28;19956;-79
2024/02/28 04:42:40;;;;;;;;;;;4.80;99.90;;;;;;2056327;28;20443;-80
2024/02/28 04:43:41;;;;;;;;;;;4.80;99.90;;;;;;2054541;28;19949;-80
2024/02/28 04:44:42;;;;;;;;;;;4.80;99.90;;;;;;2058535;28;20000;-80
2024/02/28 04:45:42;;;;;;;;;;;4.80;99.90;;;;;;2059955;28;20465;-80
2024/02/28 04:46:43;;;;;;;;;;;4.90;99.90;;;;;;2058423;28;19913;-81
2024/02/28 04:47:43;;;;;;;;;;;4.80;99.90;;;;;;2058466;28;20299;-80
2024/02/28 04:48:43;;;;;;;;;;;4.80;99.90;;;;;;2060010;28;19944;-80
2024/02/28 04:49:44;;;;;;;;;;;4.80;99.90;;;;;;2058708;28;19960;-79
2024/02/28 04:50:45;;;;;;;;;;;4.80;99.90;;;;;;2057875;28;19910;-79
2024/02/28 04:51:45;;;;;;;;;;;4.80;99.90;;;;;;2058766;28;20334;-79
2024/02/28 04:52:46;;;;;;;;;;;4.80;99.90;;;;;;2058109;28;20009;-79
2024/02/28 04:53:46;;;;;;;;;;;4.80;99.90;;;;;;2060188;28;19923;-79
2024/02/28 04:54:46;;;;;;;;;;;4.80;99.90;;;;;;2060297;28;19921;-80
2024/02/28 04:55:47;;;;;;;;;;;4.80;99.90;;;;;;2060330;28;19924;-79
2024/02/28 04:56:47;;;;;;;;;;;4.80;99.90;;;;;;2059977;28;19924;-80
2024/02/28 04:57:48;;;;;;;;;;;4.80;99.90;;;;;;2055925;28;20308;-80
2024/02/28 04:58:48;;;;;;;;;;;4.80;99.90;;;;;;2056342;28;19913;-80
2024/02/28 04:59:49;;;;;;;;;;;4.80;99.90;;;;;;2060157;28;19920;-78
2024/02/28 05:00:50;;;;;;;;;;;4.80;99.90;;;;;;2060213;28;19969;-80
2024/02/28 05:01:51;;;;;;;;;;;4.80;99.90;;;;;;2060249;28;20365;-81
2024/02/28 05:02:52;;;;;;;;;;;4.80;99.90;;;;;;2060032;28;20458;-80
2024/02/28 05:03:52;;;;;;;;;;;4.80;99.90;;;;;;2060046;28;20367;-79
2024/02/28 05:04:53;;;;;;;;;;;4.80;99.90;;;;;;2056138;28;19913;-78
2024/02/28 05:05:53;;;;;;;;;;;4.80;99.90;;;;;;2055694;28;19913;-80
2024/02/28 05:06:54;;;;;;;;;;;4.80;99.90;;;;;;2060227;28;19910;-79
2024/02/28 05:07:54;;;;;;;;;;;4.80;99.90;;;;;;2060206;28;19910;-80
2024/02/28 05:08:55;;;;;;;;;;;4.90;99.90;;;;;;2053717;28;19917;-80
2024/02/28 05:09:55;;;;;;;;;;;4.80;99.90;;;;;;2058480;28;19910;-80
2024/02/28 05:10:56;;;;;;;;;;;4.90;99.90;;;;;;2056266;28;20451;-79
2024/02/28 05:11:56;;;;;;;;;;;4.90;99.90;;;;;;2056499;28;19953;-80
2024/02/28 05:12:57;;;;;;;;;;;4.90;99.90;;;;;;2060004;28;20396;-80
2024/02/28 05:13:57;;;;;;;;;;;4.90;99.90;;;;;;2059814;28;19917;-79
2024/02/28 05:14:58;;;;;;;;;;;4.90;99.90;;;;;;2060209;28;19925;-80
2024/02/28 05:15:58;;;;;;;;;;;4.90;99.90;;;;;;2059551;28;19992;-80
2024/02/28 05:16:59;;;;;;;;;;;4.80;99.90;;;;;;2045063;28;19910;-80
2024/02/28 05:18:00;;;;;;;;;;;4.90;99.90;;;;;;2059012;28;19937;-80
2024/02/28 05:19:00;;;;;;;;;;;4.90;99.90;;;;;;2056894;28;19924;-80
2024/02/28 05:20:00;;;;;;;;;;;4.90;99.90;;;;;;2059292;28;19948;-79
2024/02/28 05:21:01;;;;;;;;;;;4.80;99.90;;;;;;2056854;28;19921;-79
2024/02/28 05:22:02;;;;;;;;;;;4.80;99.90;;;;;;2054583;28;19913;-80
2024/02/28 05:23:03;;;;;;;;;;;4.80;99.90;;;;;;2056788;28;19925;-78
2024/02/28 05:24:03;;;;;;;;;;;4.80;99.90;;;;;;2057318;28;19940;-79
2024/02/28 05:25:04;;;;;;;;;;;4.80;99.90;;;;;;2059496;28;19945;-79
2024/02/28 05:26:06;;;;;;;;;;;4.80;99.90;;;;;;2060359;28;20023;-79
2024/02/28 05:27:07;;;;;;;;;;;4.80;99.90;;;;;;2059666;28;19929;-78
2024/02/28 05:28:07;;;;;;;;;;;4.80;99.90;;;;;;2059336;28;19913;-80
2024/02/28 05:29:08;;;;;;;;;;;4.80;99.90;;;;;;2054969;28;19957;-80
2024/02/28 05:30:08;;;;;;;;;;;4.80;99.90;;;;;;2058302;28;20482;-79
2024/02/28 05:31:22;;;;;;;;;;;4.80;99.90;;;;;;2050372;28;20009;-78
2024/02/28 05:32:22;;;;;;;;;;;4.80;99.90;;;;;;2058894;28;20004;-79
2024/02/28 05:33:23;;;;;;;;;;;4.80;99.90;;;;;;2055724;28;19914;-79
2024/02/28 05:34:23;;;;;;;;;;;4.90;99.90;;;;;;2057088;28;20390;-80
2024/02/28 05:35:24;;;;;;;;;;;4.90;99.90;;;;;;2059368;28;19909;-79
2024/02/28 05:36:26;;;;;;;;;;;4.90;99.90;;;;;;2059368;28;19909;-79
2024/02/28 05:37:26;;;;;;;;;;;4.90;99.90;;;;;;2055724;28;19917;-78
2024/02/28 05:38:26;;;;;;;;;;;4.90;99.90;;;;;;2059843;28;20435;-80
2024/02/28 05:39:30;;;;;;;;;;;4.80;99.90;;;;;;2059451;28;19953;-79
2024/02/28 05:40:31;;;;;;;;;;;4.80;99.90;;;;;;2060044;28;19913;-77
2024/02/28 05:41:31;;;;;;;;;;;4.90;99.90;;;;;;2059607;28;20356;-79
2024/02/28 05:42:32;;;;;;;;;;;4.90;99.90;;;;;;2056880;28;19918;-79
2024/02/28 05:43:32;;;;;;;;;;;4.90;99.90;;;;;;2055830;28;19941;-79
2024/02/28 05:44:34;;;;;;;;;;;4.90;99.90;;;;;;2054351;28;19910;-80
2024/02/28 05:45:34;;;;;;;;;;;4.90;99.90;;;;;;2059567;28;20013;-79
2024/02/28 05:46:36;;;;;;;;;;;4.80;99.90;;;;;;2059275;28;20056;-79
2024/02/28 05:47:37;;;;;;;;;;;4.80;99.90;;;;;;2055803;28;19914;-80
2024/02/28 05:48:37;;;;;;;;;;;4.80;99.90;;;;;;2057788;28;20005;-79
2024/02/28 05:49:38;;;;;;;;;;;4.80;99.90;;;;;;2058592;28;19921;-79
2024/02/28 05:50:38;;;;;;;;;;;4.80;99.90;;;;;;2059716;28;19914;-79
2024/02/28 05:51:39;;;;;;;;;;;4.90;99.90;;;;;;2060395;28;20269;-79
2024/02/28 05:52:41;;;;;;;;;;;4.90;99.90;;;;;;2059440;28;19910;-79
2024/02/28 05:53:42;;;;;;;;;;;4.90;99.90;;;;;;2058797;28;20466;-79
2024/02/28 05:54:43;;;;;;;;;;;4.90;99.90;;;;;;2059503;28;20300;-79
2024/02/28 05:55:44;;;;;;;;;;;4.90;99.90;;;;;;2067341;28;19990;-79
2024/02/28 05:56:45;;;;;;;;;;;4.90;99.90;;;;;;2060063;28;19964;-79
2024/02/28 05:57:45;;;;;;;;;;;4.80;99.90;;;;;;2055587;28;20309;-80
2024/02/28 05:58:47;;;;;;;;;;;4.80;99.90;;;;;;2050484;28;19910;-80
2024/02/28 05:59:47;;;;;;;;;;;4.80;99.90;;;;;;2059453;28;20024;-79